Map

Track Data

SID SEASON NUMBER BASIN SUBBASIN NAME ISO_TIME NATURE LAT LON WMO_WIND WMO_PRES WMO_AGENCY TRACK_TYPE DIST2LAND LANDFALL IFLAG USA_AGENCY USA_ATCF_ID USA_LAT USA_LON USA_RECORD USA_STATUS USA_WIND USA_PRES USA_SSHS USA_R34_NE USA_R34_SE USA_R34_SW USA_R34_NW USA_R50_NE USA_R50_SE USA_R50_SW USA_R50_NW USA_R64_NE USA_R64_SE USA_R64_SW USA_R64_NW USA_POCI USA_ROCI USA_RMW USA_EYE TOKYO_LAT TOKYO_LON TOKYO_GRADE TOKYO_WIND TOKYO_PRES TOKYO_R50_DIR TOKYO_R50_LONG TOKYO_R50_SHORT TOKYO_R30_DIR TOKYO_R30_LONG TOKYO_R30_SHORT TOKYO_LAND CMA_LAT CMA_LON CMA_CAT CMA_WIND CMA_PRES HKO_LAT HKO_LON HKO_CAT HKO_WIND HKO_PRES NEWDELHI_LAT NEWDELHI_LON NEWDELHI_GRADE NEWDELHI_WIND NEWDELHI_PRES NEWDELHI_CI NEWDELHI_DP NEWDELHI_POCI REUNION_LAT REUNION_LON REUNION_TYPE REUNION_WIND REUNION_PRES REUNION_TNUM REUNION_CI REUNION_RMW REUNION_R34_NE REUNION_R34_SE REUNION_R34_SW REUNION_R34_NW REUNION_R50_NE REUNION_R50_SE REUNION_R50_SW REUNION_R50_NW REUNION_R64_NE REUNION_R64_SE REUNION_R64_SW REUNION_R64_NW BOM_LAT BOM_LON BOM_TYPE BOM_WIND BOM_PRES BOM_TNUM BOM_CI BOM_RMW BOM_R34_NE BOM_R34_SE BOM_R34_SW BOM_R34_NW BOM_R50_NE BOM_R50_SE BOM_R50_SW BOM_R50_NW BOM_R64_NE BOM_R64_SE BOM_R64_SW BOM_R64_NW BOM_ROCI BOM_POCI BOM_EYE BOM_POS_METHOD BOM_PRES_METHOD NADI_LAT NADI_LON NADI_CAT NADI_WIND NADI_PRES WELLINGTON_LAT WELLINGTON_LON WELLINGTON_WIND WELLINGTON_PRES DS824_LAT DS824_LON DS824_STAGE DS824_WIND DS824_PRES TD9636_LAT TD9636_LON TD9636_STAGE TD9636_WIND TD9636_PRES TD9635_LAT TD9635_LON TD9635_WIND TD9635_PRES TD9635_ROCI NEUMANN_LAT NEUMANN_LON NEUMANN_CLASS NEUMANN_WIND NEUMANN_PRES MLC_LAT MLC_LON MLC_CLASS MLC_WIND MLC_PRES USA_GUST BOM_GUST BOM_GUST_PER REUNION_GUST REUNION_GUST_PER USA_SEAHGT USA_SEARAD_NE USA_SEARAD_SE USA_SEARAD_SW USA_SEARAD_NW STORM_SPEED STORM_DIR
1926225N24088 1926 31 NI BB NOT_NAMED 1926-08-13 00:00:00 TS 23.8000 88.4000 main 0 0 _________O____ -1 23.8000 88.4000 TC 30 2 144
1926225N24088 1926 31 NI BB NOT_NAMED 1926-08-13 03:00:00 TS 23.6983 88.4734 main 0 0 _________PO___ -1 23.6475 88.5101 TC 30 23.8000 88.4000 1 3 149
1926225N24088 1926 31 NI BB NOT_NAMED 1926-08-13 06:00:00 TS 23.5669 88.5513 main 0 0 _________OP___ -1 23.5000 88.6000 TC 30 23.6672 88.4782 1 3 154
1926225N24088 1926 31 NI BB NOT_NAMED 1926-08-13 09:00:00 TS 23.4304 88.6136 main 0 0 _________PP___ -1 23.3575 88.6575 TC 30 23.5275 88.5551 1 3 160
1926225N24088 1926 31 NI BB NOT_NAMED 1926-08-13 12:00:00 TS 23.2870 88.6647 main 0 0 _________OP___ -1 23.2000 88.7000 TC 30 23.3741 88.6294 1 3 162
1926225N24088 1926 31 NI BB NOT_NAMED 1926-08-13 15:00:00 TS 23.1000 88.7288 main 0 0 _________PO___ -1 23.0000 88.7575 TC 31 23.2000 88.7000 1 4 165
1926225N24088 1926 31 NI BB NOT_NAMED 1926-08-13 18:00:00 TS 22.9019 88.7819 main 0 0 _________OP___ -1 22.8000 88.8000 TC 32 23.0037 88.7638 1 4 168
1926225N24088 1926 31 NI BB NOT_NAMED 1926-08-13 21:00:00 TS 22.7162 88.8163 main 0 0 _________PP___ -1 22.6275 88.8225 TC 33 22.8049 88.8100 1 3 173
1926225N24088 1926 31 NI BB NOT_NAMED 1926-08-14 00:00:00 TS 22.5643 88.8131 main 0 0 _________OP___ -1 22.5000 88.8000 TC 34 22.6287 88.8262 1 3 193
1926225N24088 1926 31 NI BB NOT_NAMED 1926-08-14 03:00:00 TS 22.4600 88.7612 main 0 0 _________PO___ -1 22.4200 88.7225 TC 36 22.5000 88.8000 2 2 224
1926225N24088 1926 31 NI BB NOT_NAMED 1926-08-14 06:00:00 TS 22.4167 88.6590 main 0 0 _________OP___ -1 22.4000 88.6000 TC 39 22.4335 88.7180 2 2 260
1926225N24088 1926 31 NI BB NOT_NAMED 1926-08-14 09:00:00 TS 22.4226 88.5224 main 0 0 _________PP___ -1 22.4275 88.4500 TC 42 22.4176 88.5949 2 3 282
1926225N24088 1926 31 NI BB NOT_NAMED 1926-08-14 12:00:00 TS 22.4714 88.3746 main 0 0 _________OP___ -1 22.5000 88.3000 TC 45 22.4429 88.4493 2 3 296
1926225N24088 1926 31 NI BB NOT_NAMED 1926-08-14 15:00:00 TS 22.5462 88.2500 main 0 0 _________PO___ -1 22.5925 88.2000 TC 45 22.5000 88.3000 3 3 311
1926225N24088 1926 31 NI BB NOT_NAMED 1926-08-14 18:00:00 TS 22.6600 88.1418 main 0 0 _________OP___ -1 22.7000 88.1000 TC 45 22.6199 88.1835 3 3 319
1926225N24088 1926 31 NI BB NOT_NAMED 1926-08-14 21:00:00 TS 22.7949 88.0154 main 0 0 _________PP___ -1 22.8300 87.9651 TC 45 22.7599 88.0657 3 3 312
1926225N24088 1926 31 NI BB NOT_NAMED 1926-08-15 00:00:00 TS 22.8850 87.8699 main 0 0 _________OP___ -1 22.9000 87.8000 TC 45 22.8699 87.9399 3 3 286
1926225N24088 1926 31 NI BB NOT_NAMED 1926-08-15 03:00:00 TS 22.8800 87.7000 main 0 0 _________PO___ -1 22.8600 87.6000 TC 45 22.9000 87.8000 3 4 247
1926225N24088 1926 31 NI BB NOT_NAMED 1926-08-15 06:00:00 TS 22.7452 87.5031 main 0 0 _________OP___ -1 22.7000 87.4000 TC 45 22.7905 87.6062 3 5 224
1926225N24088 1926 31 NI BB NOT_NAMED 1926-08-15 09:00:00 TS 22.5101 87.3081 main 0 0 _________PP___ -1 22.4225 87.2123 TC 45 22.5977 87.4040 3 6 211
1926225N24088 1926 31 NI BB NOT_NAMED 1926-08-15 12:00:00 TS 22.2280 87.1625 main 0 0 _________OP___ -1 22.1000 87.1000 TC 45 22.3561 87.2249 3 6 198
1926225N24088 1926 31 NI BB NOT_NAMED 1926-08-15 15:00:00 TS 21.9675 87.1138 main 0 0 _________PO___ -1 21.8350 87.1277 TC 45 22.1000 87.1000 3 5 181
1926225N24088 1926 31 NI BB NOT_NAMED 1926-08-15 18:00:00 TS 21.7309 87.1503 main 0 0 _________OP___ -1 21.6000 87.2000 TC 45 21.8617 87.1007 3 5 172
1926225N24088 1926 31 NI BB NOT_NAMED 1926-08-15 21:00:00 TS 21.5024 87.1905 main 10 10 _________PP___ -1 21.3850 87.2300 TC 45 21.6198 87.1509 3 4 174
1926225N24088 1926 31 NI BB NOT_NAMED 1926-08-16 00:00:00 TS 21.2965 87.2003 main 23 23 _________OP___ -1 21.2000 87.2000 TC 45 21.3930 87.2006 3 4 184
1926225N24088 1926 31 NI BB NOT_NAMED 1926-08-16 03:00:00 TS 21.1138 87.1400 main 30 15 _________PO___ -1 21.0275 87.0799 TC 45 21.2000 87.2000 3 4 210
1926225N24088 1926 31 NI BB NOT_NAMED 1926-08-16 06:00:00 TS 20.9699 86.9951 main 15 0 _________OP___ -1 20.9000 86.9000 TC 45 21.0397 87.0903 3 4 231
1926225N24088 1926 31 NI BB NOT_NAMED 1926-08-16 09:00:00 TS 20.8688 86.8198 main 0 0 _________PP___ -1 20.8200 86.7150 TC 45 20.9175 86.9246 3 4 247
1926225N24088 1926 31 NI BB NOT_NAMED 1926-08-16 12:00:00 TS 20.8183 86.6108 main 0 0 _________OP___ -1 20.8000 86.5000 TC 45 20.8366 86.7216 3 4 263
1926225N24088 1926 31 NI BB NOT_NAMED 1926-08-16 15:00:00 TS 20.8175 86.3750 main 0 0 _________PO___ -1 20.8350 86.2501 TC 41 20.8000 86.5000 3 4 274
1926225N24088 1926 31 NI BB NOT_NAMED 1926-08-16 18:00:00 TS 20.8450 86.1689 main 0 0 _________OP___ -1 20.9000 86.0000 TC 37 20.7900 86.3379 3 4 280
1926225N24088 1926 31 NI BB NOT_NAMED 1926-08-16 21:00:00 TS 20.8793 85.9996 main 0 0 _________PP___ -1 20.9347 85.8448 TC 33 20.8240 86.1545 3 4 285
1926225N24088 1926 31 NI BB NOT_NAMED 1926-08-17 00:00:00 TS 20.9480 85.7594 main 0 0 _________OP___ -1 21.0000 85.6000 TC 30 20.8960 85.9189 3 6 287
1926225N24088 1926 31 NI BB NOT_NAMED 1926-08-17 03:00:00 TS 21.0676 85.3476 main 0 0 _________PO___ -1 21.1353 85.0951 TC 30 21.0000 85.6000 1 9 287
1926225N24088 1926 31 NI BB NOT_NAMED 1926-08-17 06:00:00 TS 21.2068 84.8307 main 0 0 _________OP___ -1 21.3000 84.5000 TC 30 21.1137 85.1614 1 10 286
1926225N24088 1926 31 NI BB NOT_NAMED 1926-08-17 09:00:00 TS 21.3490 84.3199 main 0 0 _________PP___ -1 21.4422 83.9998 TC 30 21.2557 84.6400 1 10 287
1926225N24088 1926 31 NI BB NOT_NAMED 1926-08-17 12:00:00 TS 21.5099 83.7868 main 0 0 _________OP___ -1 21.6000 83.5000 TC 30 21.4198 84.0737 1 11 289
1926225N24088 1926 31 NI BB NOT_NAMED 1926-08-17 15:00:00 TS 21.6962 83.2250 main 0 0 _________PO___ -1 21.7925 82.9500 TC 30 21.6000 83.5000 1 11 290
1926225N24088 1926 31 NI BB NOT_NAMED 1926-08-17 18:00:00 TS 21.8948 82.6754 main 0 0 _________OP___ -1 22.0000 82.4000 TC 30 21.7897 82.9508 1 11 292
1926225N24088 1926 31 NI BB NOT_NAMED 1926-08-17 21:00:00 TS 22.1000 82.1414 main 0 0 _________PP___ -1 22.2074 81.8775 TC 30 21.9926 82.4053 1 10 293
1926225N24088 1926 31 NI BB NOT_NAMED 1926-08-18 00:00:00 TS 22.2996 81.6410 main 0 0 _________OP___ -1 22.4000 81.4000 TC 30 22.1992 81.8821 1 10 293
1926225N24088 1926 31 NI BB NOT_NAMED 1926-08-18 03:00:00 TS 22.4749 81.1886 main 0 0 _________PO___ -1 22.5498 80.9773 TC 30 22.4000 81.4000 1 9 293
1926225N24088 1926 31 NI BB NOT_NAMED 1926-08-18 06:00:00 TS 22.6386 80.7906 main 0 0 _________OP___ -1 22.7000 80.6000 TC 30 22.5773 80.9812 1 8 296
1926225N24088 1926 31 NI BB NOT_NAMED 1926-08-18 09:00:00 TS 22.8206 80.4270 main 0 0 _________PP___ -1 22.8923 80.2499 TC 30 22.7489 80.6041 1 8 299
1926225N24088 1926 31 NI BB NOT_NAMED 1926-08-18 12:00:00 TS 23.0106 80.0750 main 0 0 _________OP___ -1 23.1000 79.9000 TC 30 22.9212 80.2500 1 8 300
1926225N24088 1926 31 NI BB NOT_NAMED 1926-08-18 15:00:00 TS 23.2000 79.7000 main 0 0 _________PO___ -1 23.3000 79.4999 TC 30 23.1000 79.9000 1 8 299
1926225N24088 1926 31 NI BB NOT_NAMED 1926-08-18 18:00:00 TS 23.4005 79.3044 main 0 0 _________OP___ -1 23.5000 79.1000 TC 30 23.3009 79.5089 1 8 300
1926225N24088 1926 31 NI BB NOT_NAMED 1926-08-18 21:00:00 TS 23.6075 78.9276 main 0 0 _________PP___ -1 23.7074 78.7350 TC 30 23.5075 79.1202 1 8 301
1926225N24088 1926 31 NI BB NOT_NAMED 1926-08-19 00:00:00 TS 23.8052 78.5732 main 0 0 _________OP___ -1 23.9000 78.4000 TC 30 23.7103 78.7464 1 7 301
1926225N24088 1926 31 NI BB NOT_NAMED 1926-08-19 03:00:00 TS 23.9787 78.2424 main 0 0 _________PO___ -1 24.0574 78.0849 TC 30 23.9000 78.4000 1 7 300
1926225N24088 1926 31 NI AS NOT_NAMED 1926-08-19 06:00:00 TS 24.1361 77.9358 main 0 0 _________OP___ -1 24.2000 77.8000 TC 30 24.0723 78.0716 1 6 300
1926225N24088 1926 31 NI AS NOT_NAMED 1926-08-19 09:00:00 TS 24.2936 77.6511 main 0 0 _________PP___ -1 24.3575 77.5275 TC 30 24.2298 77.7748 1 6 302
1926225N24088 1926 31 NI AS NOT_NAMED 1926-08-19 12:00:00 TS 24.4362 77.4078 main 0 0 _________OP___ -1 24.5000 77.3000 TC 30 24.3724 77.5155 1 5 303
1926225N24088 1926 31 NI AS NOT_NAMED 1926-08-19 15:00:00 TS 24.5537 77.2137 main 0 0 _________PO___ -1 24.6074 77.1274 TC 30 24.5000 77.3000 1 4 305
1926225N24088 1926 31 NI AS NOT_NAMED 1926-08-19 18:00:00 TS 24.6469 77.0697 main 0 0 _________OP___ -1 24.7000 77.0000 TC 30 24.5937 77.1394 1 3 308
1926225N24088 1926 31 NI AS NOT_NAMED 1926-08-19 21:00:00 TS 24.7310 76.9633 main 0 0 _________PP___ -1 24.7849 76.9074 TC 30 24.6771 77.0192 1 3 314
1926225N24088 1926 31 NI AS NOT_NAMED 1926-08-20 00:00:00 TS 24.8359 76.8572 main 0 0 _________OP___ -1 24.9000 76.8000 TC 30 24.7719 76.9144 1 4 318
1926225N24088 1926 31 NI AS NOT_NAMED 1926-08-20 03:00:00 TS 24.9888 76.7038 main 0 0 _________PO___ -1 25.0776 76.6076 TC 30 24.9000 76.8000 1 5 319
1926225N24088 1926 31 NI AS NOT_NAMED 1926-08-20 06:00:00 TS 25.1946 76.5117 main 0 0 _________OP___ -1 25.3000 76.4000 TC 30 25.0892 76.6235 1 6 323
1926225N24088 1926 31 NI AS NOT_NAMED 1926-08-20 09:00:00 TS 25.4313 76.3353 main 0 0 _________PP___ -1 25.5500 76.2350 TC 30 25.3127 76.4355 1 6 328
1926225N24088 1926 31 NI AS NOT_NAMED 1926-08-20 12:00:00 TS 25.6774 76.1774 main 0 0 _________OP___ -1 25.8000 76.1000 TC 30 25.5548 76.2547 1 5 331
1926225N24088 1926 31 NI AS NOT_NAMED 1926-08-20 15:00:00 TS 25.9000 76.0425 main 0 0 _________PO___ -1 26.0000 75.9849 TC 30 25.8000 76.1000 1 5 335
1926225N24088 1926 31 NI AS NOT_NAMED 1926-08-20 18:00:00 TS 26.1062 75.9488 main 0 0 _________OP___ -1 26.2000 75.9000 TC 30 26.0358 75.9854 1 5 341
1926225N24088 1926 31 NI AS NOT_NAMED 1926-08-20 21:00:00 TS 26.3324 75.8798 main 0 0 _________PP___ -1 26.4375 75.8426 TC 30 26.2624 75.9047 1 5 347
1926225N24088 1926 31 NI AS NOT_NAMED 1926-08-21 00:00:00 TS 26.5551 75.8311 main 0 0 _________OP___ -1 26.7000 75.8000 TC 30 26.4827 75.8467 1 4 350
1926225N24088 1926 31 NI AS NOT_NAMED 1926-08-21 03:00:00 NR 26.7000 75.8000 main 0 __________O___ -1 TC 26.7000 75.8000 1 3 0

About IBTrACS Database

This database is a web-friendly format of International Best Track Archive for Climate Stewardship (IBTrACS), a global best track data archive curated by NOAA dating back to 1842.

Updated: 2021-11-26